PINE FLAT DAM (PNF)

Elevation: 970' · KINGS R basin · Operator: US Army Corps of Engineers

Provisional data, subject to change.
Query executed Friday at 13:39:01   clock

Select a sensor type for a plot of data.
Note: Reservoir Flows are daily averages.

Earlier

Date RES ELE    STORAGE    RES CHG    TOC STO    ABV TOC    OUTFLOW    INFLOW    FNF    PPT INC    PPTINC4    TEMP MN    TEMP MX    WINDLEN    EVP PAN   
 FEET   AF   AF   AF   AF   CFS   CFS   CFS   INCHES   INCHES   DEG F   DEG F   MILES   INCHES  
04/07/2016 827.20 409156 4862 935000 -461058 715 3180 4175 0.00 0.00 -- -- 31 0.14
04/08/2016 828.56 414158 5002 937954 -523796 670 3206 4134 0.29 0.00 -- -- 36 0.14
04/09/2016 830.56 421572 7414 940909 -519337 613 4363 5336 1.33 1.27 -- -- 33 0.12
04/10/2016 832.01 426989 5417 943864 -516875 597 3340 4115 0.03 0.35 -- -- 31 0.11
04/11/2016 833.31 431877 4888 946818 -514941 534 3016 3694 0.02 0.03 -- -- -- 0.17
04/12/2016 834.53 436489 4612 920208 -513284 513 2859 3584 0.00 0.00 -- -- -- 0.19
04/13/2016 835.80 441318 4829 922922 -511409 525 2976 3862 0.00 0.00 -- -- 38 0.15
04/14/2016 837.15 446480 5162 925839 -479359 548 3172 3982 0.00 0.00 -- -- 57 0.20
04/15/2016 838.36 451134 4654 928609 -477475 563 2927 3583 0.00 0.00 -- -- 45 0.16
04/16/2016 839.41 455192 4058 930927 -475735 615 2684 3453 0.00 0.00 -- -- 41 0.21
04/17/2016 840.50 459425 4233 933391 -473966 641 2801 3602 0.02 0.00 -- -- 40 0.23
04/18/2016 841.78 464421 4996 936164 -471743 661 3206 4247 0.00 0.00 -- -- 46 0.24
04/19/2016 843.30 470390 5969 925593 -468983 665 3699 5034 0.00 0.00 -- -- 40 0.23
04/20/2016 844.99 477073 6683 929346 -466004 709 4103 5406 0.00 0.00 -- -- 40 0.22
04/21/2016 846.62 483565 6492 933129 -449564 793 4091 5336 0.00 0.00 -- -- 41 0.22
04/22/2016 848.38 490625 7060 937530 -446905 842 4419 5307 0.19 0.00 -- -- 47 0.15
04/23/2016 849.84 496521 5896 940457 -443936 837 3833 5950 0.02 0.18 -- -- 43 0.21
04/24/2016 851.01 501272 4751 944889 -443617 829 3242 2467 0.00 0.00 -- -- 48 0.15
04/25/2016 852.10 505720 4448 948624 -442904 793 3055 2653 0.01 0.01 -- -- 51 0.17
04/26/2016 852.98 509325 3605 912658 -441887 794 2632 3197 0.00 0.00 -- -- 40 0.19
04/27/2016 853.76 512532 3207 914241 -440096 892 2533 4507 0.01 0.00 -- -- 52 0.21
04/28/2016 854.47 515460 2928 916892 -401432 1060 2550 3116 0.00 0.00 -- -- 35 0.12
04/29/2016 855.07 517941 2481 919517 -401576 1155 2432 2924 0.02 0.00 -- -- 51 0.23
04/30/2016 855.64 520303 2362 922355 -402052 1354 2572 3191 0.00 0.00 -- -- 46 0.23
05/01/2016 856.16 522464 2161 922501 -400037 1470 2589 3173 0.00 0.00 -- -- 47 0.25
05/02/2016 856.50 523878 1414 922317 -398439 1503 2248 2699 0.00 0.00 -- -- 60 0.27
05/03/2016 856.94 525712 1834 922229 -396517 1521 2471 3211 0.02 0.01 -- -- 46 0.22
05/04/2016 857.61 528511 2799 922382 -393871 1544 2978 3943 0.00 0.00 -- -- 49 0.19
05/05/2016 858.51 532283 3772 923077 -390794 1530 3444 4680 0.58 0.00 -- -- 33 0.10
05/06/2016 -- -- -- -- -- -- -- -- -- 0.68 -- -- -- --

Later | Latest

Warning! This data is preliminary and subject to revision.

Show PNF Map | Plot PNF Data | 1 Month PNF Data | Real-Time PNF Data | PNF Info